createdAt,value
2018-02-06T00:01:05.094Z,100513.08
2018-02-06T00:03:32.558Z,100512.66
2018-02-06T00:06:00.039Z,100504.44
2018-02-06T00:08:27.526Z,100494.05
2018-02-06T00:10:54.986Z,100493.94
2018-02-06T00:13:22.470Z,100485.20
2018-02-06T00:15:49.930Z,100481.39
2018-02-06T00:18:17.418Z,100479.05
2018-02-06T00:20:44.878Z,100478.80
2018-02-06T00:23:12.386Z,100470.66
2018-02-06T00:25:39.851Z,100469.33
2018-02-06T00:28:07.331Z,100456.91
2018-02-06T00:30:34.806Z,100459.07
2018-02-06T00:33:02.298Z,100451.10
2018-02-06T00:35:29.799Z,100450.44
2018-02-06T00:37:57.283Z,100445.27
2018-02-06T00:40:24.746Z,100444.70
2018-02-06T00:42:52.229Z,100436.81
2018-02-06T00:45:19.695Z,100428.17
2018-02-06T00:47:47.180Z,100428.84
2018-02-06T00:50:14.653Z,100423.70
2018-02-06T00:52:42.159Z,100417.34
2018-02-06T00:55:09.635Z,100415.94
2018-02-06T00:57:37.141Z,100422.62
2018-02-06T01:00:04.619Z,100423.52
2018-02-06T01:02:32.103Z,100417.38
2018-02-06T01:04:59.574Z,100415.21
2018-02-06T01:07:27.062Z,100402.13
2018-02-06T01:09:54.535Z,100401.14
2018-02-06T01:12:22.015Z,100387.83
2018-02-06T01:14:49.489Z,100389.41
2018-02-06T01:17:16.977Z,100386.33
2018-02-06T01:19:44.443Z,100385.41
2018-02-06T01:22:11.932Z,100386.98
2018-02-06T01:24:39.399Z,100380.91
2018-02-06T01:27:11.648Z,100381.75
2018-02-06T01:29:39.121Z,100381.01
2018-02-06T01:32:06.740Z,100382.16
2018-02-06T01:34:34.206Z,100378.80
2018-02-06T01:37:01.671Z,100370.59
2018-02-06T01:39:29.166Z,100374.58
2018-02-06T01:41:56.674Z,100366.13
2018-02-06T01:44:24.162Z,100364.69
2018-02-06T01:46:51.621Z,100356.30
2018-02-06T01:49:19.152Z,100357.25
2018-02-06T01:51:46.664Z,100359.91
2018-02-06T01:54:14.151Z,100345.39
2018-02-06T01:56:41.618Z,100343.16
2018-02-06T01:59:09.102Z,100339.11
2018-02-06T02:01:36.575Z,100332.37
2018-02-06T02:04:04.063Z,100328.80
2018-02-06T02:06:31.531Z,100323.02
2018-02-06T02:08:59.021Z,100315.41
2018-02-06T02:11:26.495Z,100317.89
2018-02-06T02:13:53.987Z,100320.47
2018-02-06T02:16:21.452Z,100309.13
2018-02-06T02:18:48.947Z,100315.41
2018-02-06T02:21:16.422Z,100310.20
2018-02-06T02:23:43.912Z,100308.53
2018-02-06T02:26:11.380Z,100301.82
2018-02-06T02:28:38.858Z,100302.31
2018-02-06T02:31:06.322Z,100295.70
2018-02-06T02:33:33.803Z,100297.42
2018-02-06T02:36:01.272Z,100278.52
2018-02-06T02:38:28.760Z,100270.83
2018-02-06T02:40:56.227Z,100277.85
2018-02-06T04:38:58.513Z,100152.81
2018-02-06T04:41:26.012Z,100155.52
2018-02-06T04:43:53.487Z,100152.28
2018-02-06T04:46:20.979Z,100143.48
2018-02-06T04:48:48.445Z,100141.34
2018-02-06T04:51:15.930Z,100132.88
2018-02-06T04:53:43.399Z,100129.45
2018-02-06T04:56:10.886Z,100131.73
2018-02-06T04:58:38.362Z,100126.75
2018-02-06T05:01:08.714Z,100124.55
2018-02-06T05:03:36.188Z,100124.62
2018-02-06T05:06:03.673Z,100116.15
2018-02-06T05:08:31.140Z,100112.97
2018-02-06T05:10:58.627Z,100104.45
2018-02-06T05:13:26.090Z,100100.55
2018-02-06T05:15:53.575Z,100101.41
2018-02-06T05:18:21.051Z,100095.94
2018-02-06T05:20:48.532Z,100089.48
2018-02-06T05:23:16.009Z,100090.08
2018-02-06T05:25:43.498Z,100091.41
2018-02-06T05:28:10.974Z,100077.25
2018-02-06T05:30:38.468Z,100078.40
2018-02-06T05:33:05.932Z,100076.95
2018-02-06T05:35:33.417Z,100074.03
2018-02-06T05:38:00.878Z,100069.26
2018-02-06T05:40:28.782Z,100069.71
2018-02-06T05:42:56.263Z,100071.05
2018-02-06T05:45:23.739Z,100054.63
2018-02-06T05:47:51.222Z,100067.97
2018-02-06T05:50:18.688Z,100066.41
2018-02-06T05:52:46.179Z,100053.27
2018-02-06T05:55:13.652Z,100054.17
2018-02-06T05:57:41.139Z,100054.17
2018-02-06T06:00:08.608Z,100048.97
2018-02-06T06:02:36.104Z,100046.53
2018-02-06T06:05:03.663Z,100042.92
2018-02-06T06:07:31.147Z,100044.33
2018-02-06T06:09:58.620Z,100042.92
2018-02-06T06:12:26.112Z,100034.03
2018-02-06T06:14:53.570Z,100033.84
2018-02-06T06:17:21.543Z,100032.36
2018-02-06T06:19:49.021Z,100037.45
2018-02-06T06:22:16.516Z,100038.09
2018-02-06T06:24:43.982Z,100041.78
2018-02-06T06:27:11.864Z,100040.49
2018-02-06T06:29:39.331Z,100037.98
2018-02-06T06:32:06.810Z,100034.11
2018-02-06T06:34:34.272Z,100035.59
2018-02-06T06:37:01.761Z,100041.03
2018-02-06T06:39:29.226Z,100034.80
2018-02-06T06:41:56.721Z,100043.42
2018-02-06T06:44:24.191Z,100038.30
2018-02-06T06:46:51.683Z,100031.27
2018-02-06T06:49:19.150Z,100029.76
2018-02-06T06:51:46.635Z,100026.64
2018-02-06T06:54:14.103Z,100020.72
2018-02-06T06:56:41.587Z,100012.58
2018-02-06T06:59:09.059Z,100004.61
2018-02-06T07:01:36.543Z,100011.83
2018-02-06T07:04:04.015Z,99999.52
2018-02-06T07:06:31.475Z,99999.74
2018-02-06T07:08:58.982Z,100005.02
2018-02-06T07:11:26.453Z,100014.70
2018-02-06T07:13:53.946Z,100011.47
2018-02-06T07:16:21.411Z,100019.40
2018-02-06T07:18:48.914Z,100014.95
2018-02-06T07:21:16.379Z,100011.03
2018-02-06T07:23:43.869Z,100015.39
2018-02-06T07:26:11.331Z,100014.09
2018-02-06T07:28:38.836Z,100012.91
2018-02-06T07:31:06.300Z,100014.67
2018-02-06T07:33:33.794Z,100008.66
2018-02-06T07:36:01.258Z,100009.03
2018-02-06T07:38:28.750Z,100015.09
2018-02-06T07:40:56.231Z,100009.00
2018-02-06T07:43:23.721Z,100014.70
2018-02-06T07:45:51.187Z,100011.76
2018-02-06T07:48:18.687Z,100011.16
2018-02-06T07:50:46.151Z,100009.24
2018-02-06T07:53:13.645Z,100013.27
2018-02-06T07:55:42.116Z,100010.41
2018-02-06T07:58:09.606Z,100013.84
2018-02-06T08:00:37.075Z,100016.34
2018-02-06T08:03:04.565Z,100024.36
2018-02-06T08:05:32.027Z,100018.62
2018-02-06T08:07:59.537Z,100015.27
2018-02-06T08:10:27.007Z,100015.59
2018-02-06T08:12:54.483Z,100008.82
2018-02-06T08:15:22.920Z,100011.95
2018-02-06T08:17:50.386Z,100006.94
2018-02-06T08:20:17.867Z,100009.80
2018-02-06T08:22:45.390Z,100004.59
2018-02-06T08:25:12.885Z,100005.92
2018-02-06T08:27:40.355Z,99998.27
2018-02-06T08:30:07.842Z,100004.23
2018-02-06T08:32:35.318Z,100004.95
2018-02-06T08:35:02.822Z,100002.99
2018-02-06T08:37:30.291Z,100001.44
2018-02-06T08:39:57.777Z,99999.94
2018-02-06T08:42:25.312Z,99996.64
2018-02-06T08:44:52.788Z,99987.25
2018-02-06T08:47:20.248Z,99985.70
2018-02-06T08:49:47.751Z,99980.27
2018-02-06T08:52:15.212Z,99978.50
2018-02-06T08:54:42.703Z,99975.01
2018-02-06T08:57:10.212Z,99972.88
2018-02-06T08:59:37.706Z,99970.16
2018-02-06T09:02:05.162Z,99967.50
2018-02-06T09:04:32.652Z,99974.27
2018-02-06T09:07:00.767Z,99968.21
2018-02-06T09:09:29.194Z,99961.51
2018-02-06T09:11:56.722Z,99967.22
2018-02-06T09:14:24.207Z,99965.93
2018-02-06T09:16:51.665Z,99967.02
2018-02-06T09:19:19.154Z,99962.74
2018-02-06T09:21:46.616Z,99955.95
2018-02-06T09:24:14.091Z,99954.67
2018-02-06T09:26:41.558Z,99959.91
2018-02-06T09:29:09.036Z,99964.36
2018-02-06T09:31:36.491Z,99959.75
2018-02-06T09:34:03.975Z,99962.87
2018-02-06T09:36:31.442Z,99963.88
2018-02-06T09:38:58.907Z,99960.42
2018-02-06T09:41:26.399Z,99960.94
2018-02-06T09:43:53.857Z,99963.09
2018-02-06T09:46:22.346Z,99958.13
2018-02-06T09:48:49.803Z,99961.56
2018-02-06T09:51:17.283Z,99953.22
2018-02-06T09:53:44.750Z,99960.12
2018-02-06T09:56:12.226Z,99952.42
2018-02-06T09:58:39.678Z,99948.59
2018-02-06T10:01:07.162Z,99942.95
2018-02-06T10:03:34.638Z,99942.10
2018-02-06T10:06:02.122Z,99945.38
2018-02-06T10:08:29.583Z,99940.95
2018-02-06T10:10:57.064Z,99941.89
2018-02-06T10:13:24.531Z,99947.13
2018-02-06T10:15:52.021Z,99950.34
2018-02-06T10:18:21.454Z,99943.66
2018-02-06T10:20:48.927Z,99948.83
2018-02-06T10:23:16.394Z,99944.93
2018-02-06T10:25:43.867Z,99945.73
2018-02-06T10:28:11.366Z,99940.17
2018-02-06T10:30:38.840Z,99935.05
2018-02-06T10:33:06.295Z,99935.28
2018-02-06T10:35:33.778Z,99931.87
2018-02-06T10:38:01.238Z,99937.52
2018-02-06T10:40:28.718Z,99927.25
2018-02-06T10:42:56.178Z,99925.89
2018-02-06T10:45:23.655Z,99921.17
2018-02-06T10:47:51.116Z,99926.91
2018-02-06T10:50:18.897Z,99920.45
2018-02-06T10:52:46.726Z,99920.75
2018-02-06T10:55:14.253Z,99928.23
2018-02-06T10:57:41.731Z,99922.14
2018-02-06T11:00:09.190Z,99912.80
2018-02-06T11:02:36.663Z,99910.53
2018-02-06T11:05:04.471Z,99906.32
2018-02-06T11:07:31.942Z,99905.82
2018-02-06T11:09:59.398Z,99899.66
2018-02-06T11:12:26.875Z,99891.61
2018-02-06T11:14:56.004Z,99888.37
2018-02-06T11:17:23.973Z,99891.61
2018-02-06T11:19:51.729Z,99880.21
2018-02-06T11:22:19.687Z,99873.53
2018-02-06T11:24:47.704Z,99872.92
2018-02-06T11:27:15.250Z,99872.48
2018-02-06T11:29:43.175Z,99871.67
2018-02-06T11:32:12.761Z,99880.51
2018-02-06T11:34:40.408Z,99871.78
2018-02-06T11:37:07.878Z,99865.41
2018-02-06T11:39:35.340Z,99857.28
2018-02-06T11:42:02.920Z,99855.52
2018-02-06T11:44:30.435Z,99856.13
2018-02-06T11:46:57.919Z,99853.27
2018-02-06T11:49:25.451Z,99848.44
2018-02-06T11:51:52.927Z,99844.22
2018-02-06T11:54:20.387Z,99851.48
2018-02-06T11:56:47.867Z,99855.61
2018-02-06T11:59:15.324Z,99855.41
2018-02-06T12:01:42.801Z,99847.91
2018-02-06T12:04:10.254Z,99847.28
2018-02-06T12:06:37.735Z,99845.23
2018-02-06T12:09:05.198Z,99838.55
2018-02-06T12:11:32.676Z,99841.42
2018-02-06T12:14:00.135Z,99842.26
2018-02-06T12:16:27.886Z,99835.46
2018-02-06T12:18:55.342Z,99833.92
2018-02-06T12:21:22.814Z,99831.66
2018-02-06T12:23:50.298Z,99828.88
2018-02-06T12:26:17.761Z,99826.91
2018-02-06T12:28:45.242Z,99824.22
2018-02-06T12:31:12.707Z,99820.50
2018-02-06T12:33:40.183Z,99814.42
2018-02-06T12:36:07.659Z,99812.80
2018-02-06T12:38:36.118Z,99799.40
2018-02-06T12:41:03.570Z,99791.70
2018-02-06T12:43:31.050Z,99784.57
2018-02-06T12:45:58.506Z,99783.34
2018-02-06T12:48:25.979Z,99786.87
2018-02-06T12:50:53.434Z,99784.47
2018-02-06T12:53:20.968Z,99784.70
2018-02-06T12:55:48.422Z,99782.63
2018-02-06T12:58:15.901Z,99779.39
2018-02-06T13:00:43.410Z,99776.81
2018-02-06T13:03:10.909Z,99786.64
2018-02-06T13:05:39.217Z,99786.22
2018-02-06T13:08:06.702Z,99789.23
2018-02-06T13:10:34.167Z,99776.50
2018-02-06T13:13:01.662Z,99786.48
2018-02-06T13:15:29.136Z,99781.45
2018-02-06T13:17:56.619Z,99778.86
2018-02-06T13:20:24.081Z,99771.55
2018-02-06T13:22:51.559Z,99768.05
2018-02-06T13:25:19.019Z,99772.27
2018-02-06T13:27:46.499Z,99773.83
2018-02-06T13:30:13.961Z,99762.39
2018-02-06T13:32:41.456Z,99755.28
2018-02-06T13:35:08.911Z,99756.84
2018-02-06T13:37:36.403Z,99759.12
2018-02-06T13:40:03.864Z,99764.48
2018-02-06T13:42:31.319Z,99764.69
2018-02-06T13:44:58.791Z,99769.65
2018-02-06T13:47:26.250Z,99766.04
2018-02-06T13:49:53.758Z,99765.60
2018-02-06T13:52:21.218Z,99761.11
2018-02-06T13:54:48.717Z,99756.80
2018-02-06T13:57:16.274Z,99752.38
2018-02-06T13:59:43.771Z,99755.27
2018-02-06T14:02:11.318Z,99746.81
2018-02-06T14:04:38.842Z,99749.72
2018-02-06T14:07:06.314Z,99750.13
2018-02-06T14:09:33.840Z,99748.38
2018-02-06T14:12:01.307Z,99741.39
2018-02-06T14:14:28.791Z,99752.28
2018-02-06T14:16:56.402Z,99744.48
2018-02-06T14:19:23.932Z,99754.73
2018-02-06T14:21:51.403Z,99749.80
2018-02-06T14:24:18.883Z,99747.95
2018-02-06T14:26:46.340Z,99742.72
2018-02-06T14:29:13.815Z,99747.21
2018-02-06T14:31:41.307Z,99745.89
2018-02-06T14:34:08.807Z,99742.60
2018-02-06T14:36:36.267Z,99740.47
2018-02-06T14:39:03.746Z,99750.22
2018-02-06T14:41:31.202Z,99746.71
2018-02-06T14:43:58.696Z,99746.73
2018-02-06T14:46:26.159Z,99748.38
2018-02-06T14:48:53.626Z,99748.98
2018-02-06T14:51:21.096Z,99744.13
2018-02-06T14:53:48.583Z,99742.78
2018-02-06T14:56:16.049Z,99747.73
2018-02-06T14:58:43.579Z,99739.10
2018-02-06T15:01:11.060Z,99744.22
2018-02-06T15:03:38.546Z,99747.83
2018-02-06T15:06:06.021Z,99738.66
2018-02-06T15:08:33.474Z,99730.66
2018-02-06T15:11:00.955Z,99728.77
2018-02-06T15:13:28.416Z,99729.05
2018-02-06T15:15:55.932Z,99727.14
2018-02-06T15:18:23.390Z,99724.67
2018-02-06T15:20:50.868Z,99731.03
2018-02-06T15:23:18.330Z,99729.36
2018-02-06T15:25:45.809Z,99727.22
2018-02-06T15:28:13.282Z,99725.78
2018-02-06T15:30:40.775Z,99728.13
2018-02-06T15:33:08.270Z,99734.48
2018-02-06T15:35:35.748Z,99733.66
2018-02-06T15:38:03.207Z,99727.84
2018-02-06T15:40:30.684Z,99725.16
2018-02-06T15:42:58.144Z,99724.02
2018-02-06T15:45:27.782Z,99726.70
2018-02-06T15:47:55.291Z,99719.13
2018-02-06T15:50:22.758Z,99731.05
2018-02-06T15:52:50.224Z,99726.52
2018-02-06T15:55:17.703Z,99732.34
2018-02-06T15:57:45.163Z,99730.99
2018-02-06T16:00:12.658Z,99736.41
2018-02-06T16:02:40.119Z,99740.09
2018-02-06T16:05:07.603Z,99738.86
2018-02-06T16:07:35.112Z,99735.13
2018-02-06T16:10:02.599Z,99740.77
2018-02-06T16:12:30.082Z,99736.97
2018-02-06T16:14:57.638Z,99736.20
2018-02-06T16:17:25.238Z,99735.82
2018-02-06T16:19:52.755Z,99727.81
2018-02-06T16:22:20.262Z,99737.21
2018-02-06T16:24:47.720Z,99732.47
2018-02-06T16:27:15.291Z,99727.64
2018-02-06T16:29:42.744Z,99734.31
2018-02-06T16:32:10.215Z,99731.14
2018-02-06T16:34:37.780Z,99733.06
2018-02-06T16:37:05.262Z,99722.81
2018-02-06T16:39:32.735Z,99725.59
2018-02-06T16:42:00.260Z,99732.56
2018-02-06T16:44:27.755Z,99727.64
2018-02-06T16:46:55.239Z,99739.34
2018-02-06T16:49:22.803Z,99727.97
2018-02-06T16:51:50.523Z,99731.11
2018-02-06T16:54:18.029Z,99731.11
2018-02-06T16:56:45.545Z,99736.14
2018-02-06T16:59:13.009Z,99743.64
2018-02-06T17:01:40.499Z,99748.15
2018-02-06T17:04:08.010Z,99752.39
2018-02-06T17:06:35.614Z,99758.97
2018-02-06T17:09:03.094Z,99766.02
2018-02-06T17:11:30.822Z,99765.06
2018-02-06T17:13:58.314Z,99764.23
2018-02-06T17:16:25.943Z,99759.95
2018-02-06T17:18:53.442Z,99757.72
2018-02-06T17:21:20.919Z,99758.08
2018-02-06T17:23:48.411Z,99763.08
2018-02-06T17:26:15.963Z,99764.20
2018-02-06T17:28:43.419Z,99767.50
2018-02-06T17:31:10.899Z,99766.91
2018-02-06T17:33:38.451Z,99769.20
2018-02-06T17:36:05.958Z,99773.57
2018-02-06T17:38:33.411Z,99771.91
2018-02-06T17:41:00.891Z,99771.50
2018-02-06T17:43:28.354Z,99777.04
2018-02-06T17:45:55.854Z,99779.86
2018-02-06T17:48:23.326Z,99781.70
2018-02-06T17:50:50.790Z,99783.95
2018-02-06T17:53:18.296Z,99776.45
2018-02-06T17:55:45.778Z,99774.41
2018-02-06T17:58:13.250Z,99771.62
2018-02-06T18:00:40.731Z,99774.58
2018-02-06T18:03:08.220Z,99784.74
2018-02-06T18:05:35.679Z,99776.12
2018-02-06T18:08:03.163Z,99777.33
2018-02-06T18:10:30.640Z,99768.83
2018-02-06T18:12:58.124Z,99774.48
2018-02-06T18:15:25.579Z,99766.22
2018-02-06T18:17:53.061Z,99783.73
2018-02-06T18:20:20.531Z,99787.08
2018-02-06T18:22:48.016Z,99786.95
2018-02-06T18:25:15.478Z,99796.53
2018-02-06T18:27:42.954Z,99795.96
2018-02-06T18:30:10.415Z,99792.45
2018-02-06T18:32:37.902Z,99793.50
2018-02-06T18:35:05.361Z,99790.00
2018-02-06T18:37:32.835Z,99789.59
2018-02-06T18:40:00.296Z,99797.59
2018-02-06T18:42:27.778Z,99789.76
2018-02-06T18:44:55.247Z,99793.88
2018-02-06T18:47:22.722Z,99793.70
2018-02-06T18:49:50.182Z,99797.59
2018-02-06T18:52:17.661Z,99794.70
2018-02-06T18:54:45.122Z,99788.66
2018-02-06T18:57:12.599Z,99791.84
2018-02-06T18:59:40.061Z,99791.83
2018-02-06T19:02:07.546Z,99801.70
2018-02-06T19:04:35.030Z,99799.09
2018-02-06T19:07:02.482Z,99802.34
2018-02-06T19:09:29.954Z,99800.33
2018-02-06T19:11:57.418Z,99806.17
2018-02-06T19:14:24.895Z,99795.30
2018-02-06T19:16:52.358Z,99798.70
2018-02-06T19:19:20.185Z,99803.45
2018-02-06T19:21:58.317Z,99800.17
2018-02-06T19:24:25.810Z,99795.84
2018-02-06T19:26:53.278Z,99798.50
2018-02-06T19:29:20.756Z,99805.67
2018-02-06T19:31:48.223Z,99795.42
2018-02-06T19:34:15.711Z,99797.29
2018-02-06T19:36:43.180Z,99801.29
2018-02-06T19:39:10.663Z,99795.50
2018-02-06T19:41:38.175Z,99798.09
2018-02-06T19:44:06.029Z,99798.33
2018-02-06T19:46:33.488Z,99801.70
2018-02-06T19:49:18.794Z,99796.58
2018-02-06T19:51:46.256Z,99797.08
2018-02-06T19:54:13.732Z,99796.25
2018-02-06T19:56:41.239Z,99791.83
2018-02-06T19:59:08.710Z,99794.80
2018-02-06T20:01:36.171Z,99802.91
2018-02-06T20:04:03.650Z,99808.96
2018-02-06T20:06:31.115Z,99811.91
2018-02-06T20:08:58.757Z,99809.04
2018-02-06T20:11:26.221Z,99802.70
2018-02-06T20:13:53.704Z,99801.75
2018-02-06T20:16:21.161Z,99805.95
2018-02-06T20:18:48.639Z,99800.34
2018-02-06T20:21:16.100Z,99805.38
2018-02-06T20:23:48.776Z,99799.34
2018-02-06T20:26:16.243Z,99797.88
2018-02-06T20:28:43.727Z,99802.80
2018-02-06T20:31:11.182Z,99803.37
2018-02-06T20:33:38.655Z,99801.38
2018-02-06T20:36:06.120Z,99804.38
2018-02-06T20:38:33.595Z,99807.08
2018-02-06T20:41:01.055Z,99803.70
2018-02-06T20:43:28.538Z,99809.08
2018-02-06T20:45:55.999Z,99811.34
2018-02-06T20:48:23.463Z,99813.75
2018-02-06T20:50:50.948Z,99815.91
2018-02-06T20:53:18.407Z,99809.66
2018-02-06T20:55:45.886Z,99805.95
2018-02-06T20:58:13.351Z,99809.55
2018-02-06T21:00:40.826Z,99806.46
2018-02-06T21:03:08.286Z,99812.33
2018-02-06T21:05:35.775Z,99809.08
2018-02-06T21:08:03.240Z,99816.38
2018-02-06T21:10:30.718Z,99819.08
2018-02-06T21:12:58.179Z,99818.08
2018-02-06T21:15:25.663Z,99814.91
2018-02-06T21:17:53.119Z,99819.41
2018-02-06T21:20:20.738Z,99812.03
2018-02-06T21:22:48.226Z,99811.78
2018-02-06T21:25:15.713Z,99811.42
2018-02-06T21:27:43.176Z,99813.79
2018-02-06T21:30:10.667Z,99810.33
2018-02-06T21:32:38.154Z,99811.37
2018-02-06T21:35:05.637Z,99810.45
2018-02-06T21:37:33.103Z,99812.45
2018-02-06T21:40:00.634Z,99811.13
2018-02-06T21:42:28.091Z,99814.04
2018-02-06T21:44:55.608Z,99814.55
2018-02-06T21:47:23.087Z,99825.63
2018-02-06T21:49:50.544Z,99828.70
2018-02-06T21:52:18.019Z,99829.25
2018-02-06T21:54:45.474Z,99832.33
2018-02-06T21:57:12.955Z,99830.74
2018-02-06T21:59:40.414Z,99832.75
2018-02-06T22:02:07.895Z,99831.83
2018-02-06T22:04:35.366Z,99835.54
2018-02-06T22:07:02.866Z,99836.58
2018-02-06T22:09:30.328Z,99834.83
2018-02-06T22:11:57.850Z,99832.13
2018-02-06T22:14:25.306Z,99827.70
2018-02-06T22:16:52.826Z,99827.70
2018-02-06T22:19:20.283Z,99822.79
2018-02-06T22:21:47.763Z,99829.33
2018-02-06T22:24:15.225Z,99827.74
2018-02-06T22:26:42.701Z,99835.13
2018-02-06T22:29:10.182Z,99834.70
2018-02-06T22:31:37.711Z,99837.78
2018-02-06T22:34:05.186Z,99840.78
2018-02-06T22:36:32.638Z,99844.38
2018-02-06T22:39:00.118Z,99849.49
2018-02-06T22:41:27.580Z,99848.79
2018-02-06T22:43:55.098Z,99850.48
2018-02-06T22:46:22.556Z,99848.14
2018-02-06T22:48:50.035Z,99853.69
2018-02-06T22:51:17.497Z,99847.40
2018-02-06T22:53:44.978Z,99846.79
2018-02-06T22:56:12.438Z,99842.28
2018-02-06T22:58:39.920Z,99844.44
2018-02-06T23:01:07.379Z,99851.34
2018-02-06T23:03:34.858Z,99848.67
2018-02-06T23:06:02.310Z,99852.18
2018-02-06T23:08:29.783Z,99853.39
2018-02-06T23:10:57.254Z,99851.42
2018-02-06T23:13:24.764Z,99854.42
2018-02-06T23:15:52.242Z,99852.70
2018-02-06T23:18:19.703Z,99855.26
2018-02-06T23:20:47.182Z,99849.76
2018-02-06T23:23:14.647Z,99853.40
2018-02-06T23:25:42.139Z,99842.68
2018-02-06T23:28:09.634Z,99858.21
2018-02-06T23:30:37.099Z,99852.55
2018-02-06T23:33:04.560Z,99859.70
2018-02-06T23:35:32.039Z,99863.24
2018-02-06T23:37:59.491Z,99865.92
2018-02-06T23:40:26.978Z,99863.81
2018-02-06T23:42:54.434Z,99867.72
2018-02-06T23:45:21.927Z,99860.31
2018-02-06T23:47:49.383Z,99865.39
2018-02-06T23:50:16.870Z,99866.84
2018-02-06T23:52:44.323Z,99862.22
2018-02-06T23:55:11.799Z,99868.81
2018-02-06T23:57:39.262Z,99864.48
